Time;durP1;ratioP1;P1;durP2;ratioP2;P2;SDS_P1;SDS_P2;PMS_P1;PMS_P2;Temp;Humidity;BMP_temperature;BMP_pressure;BME280_temperature;BME280_humidity;BME280_pressure;Samples;Min_cycle;Max_cycle;Signal;HPM_P1;HPM_P2
2024/02/15 00:00:16;;;;;;;5.10;4.10;;;;;;;1.53;100.00;98344.78;1225048;75;2917581;-63
2024/02/15 00:02:49;;;;;;;4.40;3.30;;;;;;;1.59;100.00;98335.88;1224573;75;2919798;-65
2024/02/15 00:05:22;;;;;;;4.30;3.00;;;;;;;1.62;100.00;98347.78;1225196;75;2929089;-64
2024/02/15 00:07:55;;;;;;;4.50;3.10;;;;;;;1.43;100.00;98338.31;1225452;75;2915228;-64
2024/02/15 00:10:28;;;;;;;5.10;2.65;;;;;;;1.48;100.00;98333.25;1224205;75;2920225;-64
2024/02/15 00:13:01;;;;;;;2.90;2.10;;;;;;;1.55;100.00;98342.47;1225828;75;2918933;-65
2024/02/15 00:15:37;;;;;;;4.10;2.25;;;;;;;1.51;100.00;98339.78;1225664;75;2913256;-65
2024/02/15 00:18:10;;;;;;;3.65;2.20;;;;;;;1.46;100.00;98338.25;1224960;75;2921667;-66
2024/02/15 00:20:43;;;;;;;3.60;2.40;;;;;;;1.46;100.00;98345.59;1225140;75;2915186;-63
2024/02/15 00:23:16;;;;;;;3.70;2.55;;;;;;;1.48;100.00;98344.03;1224403;75;2921287;-64
2024/02/15 00:25:49;;;;;;;3.15;2.40;;;;;;;1.47;100.00;98339.81;1224783;75;2925638;-64
2024/02/15 00:28:23;;;;;;;2.85;2.25;;;;;;;1.44;100.00;98342.53;1225570;75;2902806;-66
2024/02/15 00:30:59;;;;;;;4.75;2.90;;;;;;;1.41;100.00;98343.34;1224393;75;2922087;-65
2024/02/15 00:33:32;;;;;;;3.20;2.00;;;;;;;1.52;100.00;98343.25;1225105;75;2913871;-64
2024/02/15 00:36:04;;;;;;;3.15;2.35;;;;;;;1.47;100.00;98347.16;1225645;75;2913643;-64
2024/02/15 00:38:37;;;;;;;3.25;2.15;;;;;;;1.47;100.00;98353.31;1224508;75;2923525;-63
2024/02/15 00:41:10;;;;;;;4.30;2.75;;;;;;;1.32;100.00;98356.50;1224374;75;2922801;-63
2024/02/15 00:43:43;;;;;;;3.40;2.25;;;;;;;1.13;100.00;98347.78;1225018;75;2921917;-64
2024/02/15 00:46:19;;;;;;;3.30;2.35;;;;;;;1.31;100.00;98341.47;1224590;75;2922544;-64
2024/02/15 00:48:52;;;;;;;3.10;1.90;;;;;;;1.34;100.00;98344.13;1224699;75;2915467;-67
2024/02/15 00:51:24;;;;;;;4.45;2.35;;;;;;;1.12;100.00;98351.63;1224080;75;2915359;-65
2024/02/15 00:53:57;;;;;;;2.80;1.85;;;;;;;1.27;100.00;98349.59;1223232;75;2940834;-63
2024/02/15 00:56:31;;;;;;;2.80;2.00;;;;;;;1.21;100.00;98345.78;1223755;75;2922172;-66
2024/02/15 00:59:05;;;;;;;4.15;2.50;;;;;;;1.07;100.00;98346.63;1225988;75;2917537;-64
2024/02/15 01:01:40;;;;;;;3.85;2.40;;;;;;;1.00;100.00;98347.44;1224861;75;2917558;-66
2024/02/15 01:04:13;;;;;;;3.95;2.70;;;;;;;0.95;100.00;98353.25;1225076;75;2915635;-64
2024/02/15 01:06:46;;;;;;;4.15;2.70;;;;;;;1.14;100.00;98354.69;1224797;75;2920496;-65
2024/02/15 01:09:19;;;;;;;4.90;3.10;;;;;;;0.94;100.00;98359.03;1225148;75;2915766;-63
2024/02/15 01:11:52;;;;;;;5.05;3.20;;;;;;;1.12;100.00;98362.41;1225489;75;2918137;-65
2024/02/15 01:14:24;;;;;;;3.65;2.65;;;;;;;1.11;100.00;98366.28;1225352;75;2920972;-68
2024/02/15 01:17:00;;;;;;;3.45;2.45;;;;;;;1.25;100.00;98358.09;1225079;75;2917682;-66
2024/02/15 01:19:33;;;;;;;2.75;2.20;;;;;;;1.17;100.00;98359.28;1225378;75;2920455;-64
2024/02/15 01:22:06;;;;;;;3.35;2.10;;;;;;;1.11;100.00;98355.47;1225591;75;2911539;-66
2024/02/15 01:24:38;;;;;;;4.65;2.30;;;;;;;1.31;100.00;98341.47;1225470;75;2914977;-64
2024/02/15 01:27:11;;;;;;;2.70;1.80;;;;;;;1.35;100.00;98347.59;1225110;75;2918777;-65
2024/02/15 01:29:44;;;;;;;3.25;1.95;;;;;;;1.35;100.00;98347.59;1225438;75;2917652;-65
2024/02/15 01:32:20;;;;;;;3.70;2.30;;;;;;;1.35;100.00;98347.59;1224657;75;2920088;-64
2024/02/15 01:34:54;;;;;;;2.80;2.00;;;;;;;1.31;100.00;98346.88;1225173;75;2915478;-64
2024/02/15 01:37:27;;;;;;;2.45;1.70;;;;;;;1.28;100.00;98343.03;1224723;75;2920736;-65
2024/02/15 01:40:00;;;;;;;2.85;2.20;;;;;;;1.29;100.00;98341.88;1225313;75;2924104;-64
2024/02/15 01:42:33;;;;;;;3.30;2.20;;;;;;;1.32;100.00;98338.38;1225159;75;2914711;-67
2024/02/15 01:45:09;;;;;;;3.45;2.20;;;;;;;1.52;100.00;98338.63;1225292;75;2939032;-64
2024/02/15 01:47:45;;;;;;;3.50;2.25;;;;;;;1.61;100.00;98344.34;1225944;75;2919051;-65
2024/02/15 01:50:21;;;;;;;4.70;2.85;;;;;;;1.50;100.00;98349.03;1225047;75;2915946;-65
2024/02/15 01:52:58;;;;;;;3.75;2.55;;;;;;;1.56;100.00;98343.97;1225316;75;2917269;-64
2024/02/15 01:55:31;;;;;;;3.50;2.50;;;;;;;1.60;100.00;98340.09;1225566;75;2918917;-65
2024/02/15 01:58:04;;;;;;;4.25;2.60;;;;;;;1.49;100.00;98334.00;1225482;75;2912896;-65
2024/02/15 02:00:39;;;;;;;5.65;2.80;;;;;;;1.29;100.00;98333.78;1224766;75;2919438;-65
2024/02/15 02:03:16;;;;;;;5.10;3.10;;;;;;;1.41;100.00;98329.84;1224175;75;2934631;-66
2024/02/15 02:05:49;;;;;;;4.30;3.10;;;;;;;1.32;100.00;98335.69;1224686;75;2920824;-64
2024/02/15 02:08:22;;;;;;;6.40;3.95;;;;;;;1.31;100.00;98331.47;1224815;75;2916097;-65
2024/02/15 02:10:55;;;;;;;7.10;4.60;;;;;;;1.40;100.00;98320.22;1224845;75;2916247;-64
2024/02/15 02:13:29;;;;;;;5.20;3.75;;;;;;;1.60;100.00;98315.03;1224656;75;2922292;-66
2024/02/15 02:16:02;;;;;;;4.60;3.40;;;;;;;1.63;100.00;98323.09;1224476;75;2915224;-64
2024/02/15 02:18:38;;;;;;;5.60;2.80;;;;;;;1.62;100.00;98318.88;1223887;75;2934741;-64
2024/02/15 02:21:11;;;;;;;3.65;2.50;;;;;;;1.67;100.00;98321.13;1225534;75;2916870;-66
2024/02/15 02:23:44;;;;;;;3.75;2.30;;;;;;;1.72;100.00;98322.63;1225323;75;2920758;-66
2024/02/15 02:26:21;;;;;;;3.60;2.25;;;;;;;1.84;100.00;98322.13;1224979;75;2921445;-65
2024/02/15 02:28:55;;;;;;;3.45;2.25;;;;;;;1.89;100.00;98319.00;1225320;75;2917509;-65
2024/02/15 02:31:28;;;;;;;2.85;2.00;;;;;;;1.80;100.00;98326.03;1225434;75;2922313;-64
2024/02/15 02:34:01;;;;;;;2.50;1.80;;;;;;;1.89;100.00;98337.13;1224920;75;2912819;-66
2024/02/15 02:36:33;;;;;;;2.65;2.05;;;;;;;1.93;100.00;98324.38;1224767;75;2916301;-67
2024/02/15 02:39:07;;;;;;;3.25;2.15;;;;;;;1.97;100.00;98317.00;1224323;75;2928293;-66
2024/02/15 02:41:42;;;;;;;2.45;2.00;;;;;;;2.04;100.00;98322.31;1224276;75;2918536;-64
2024/02/15 02:44:15;;;;;;;3.55;2.20;;;;;;;2.10;100.00;98326.13;1194677;75;5236012;-66
2024/02/15 02:46:48;;;;;;;2.55;1.90;;;;;;;2.03;100.00;98320.78;1223927;75;2919672;-66
2024/02/15 02:49:20;;;;;;;3.55;2.15;;;;;;;2.16;100.00;98304.06;1224863;75;2915062;-66
2024/02/15 02:51:53;;;;;;;3.00;2.05;;;;;;;2.19;100.00;98306.75;1224381;75;2919694;-66
2024/02/15 02:54:26;;;;;;;2.45;1.90;;;;;;;2.23;100.00;98306.69;1224096;75;2926140;-65
2024/02/15 02:57:01;;;;;;;2.55;1.70;;;;;;;2.27;100.00;98302.78;1224241;75;2921857;-65
2024/02/15 02:59:34;;;;;;;4.15;2.00;;;;;;;2.27;100.00;98310.13;1223437;75;2926619;-64
2024/02/15 03:02:07;;;;;;;2.35;1.90;;;;;;;2.27;100.00;98308.19;1223322;75;2926163;-64
2024/02/15 03:04:40;;;;;;;2.85;2.10;;;;;;;2.24;100.00;98311.72;1224607;75;2916267;-65
2024/02/15 03:07:17;;;;;;;1.50;1.40;;;;;;;2.35;100.00;98304.22;1224743;75;2917462;-63
2024/02/15 03:09:50;;;;;;;2.80;2.05;;;;;;;2.23;100.00;98304.75;1224476;75;2921130;-65
2024/02/15 03:12:26;;;;;;;2.65;1.75;;;;;;;2.19;100.00;98306.75;1224654;67;2915366;-65
2024/02/15 03:14:59;;;;;;;4.30;2.75;;;;;;;2.17;100.00;98311.03;1224363;75;2918763;-65
2024/02/15 03:17:32;;;;;;;3.05;2.35;;;;;;;2.16;100.00;98314.88;1225015;75;2926440;-64
2024/02/15 03:20:11;;;;;;;5.15;3.15;;;;;;;2.06;100.00;98309.19;1224779;75;2917801;-65
2024/02/15 03:22:43;;;;;;;5.35;3.85;;;;;;;1.84;100.00;98310.59;1224774;75;2918000;-65
2024/02/15 03:25:16;;;;;;;7.10;4.75;;;;;;;1.63;100.00;98311.53;1224633;75;2923424;-64
2024/02/15 03:27:52;;;;;;;7.40;4.80;;;;;;;1.90;100.00;98312.44;1224632;75;2934618;-66
2024/02/15 03:30:26;;;;;;;5.10;4.00;;;;;;;1.99;100.00;98319.31;1224701;75;2911488;-65
2024/02/15 03:32:59;;;;;;;5.15;3.45;;;;;;;2.27;100.00;98312.84;1225168;75;2920158;-64
2024/02/15 03:35:33;;;;;;;5.10;3.05;;;;;;;2.09;100.00;98313.00;1224979;75;2923198;-65
2024/02/15 03:38:06;;;;;;;4.15;3.25;;;;;;;2.34;100.00;98310.06;1224210;75;2921973;-64
2024/02/15 03:40:40;;;;;;;3.50;2.50;;;;;;;2.43;100.00;98304.13;1224205;75;2918904;-64
2024/02/15 03:43:15;;;;;;;3.90;2.75;;;;;;;1.97;100.00;98306.19;1224647;75;2914763;-64
2024/02/15 03:45:48;;;;;;;8.20;4.70;;;;;;;1.93;100.00;98297.38;1224794;75;2919479;-64
2024/02/15 03:48:21;;;;;;;5.15;3.80;;;;;;;2.07;100.00;98296.47;1224820;75;2919157;-62
2024/02/15 03:50:54;;;;;;;5.40;3.60;;;;;;;2.09;100.00;98288.72;1224915;75;2923223;-66
2024/02/15 03:53:28;;;;;;;5.50;3.65;;;;;;;2.37;100.00;98293.03;1223291;75;2928589;-65
2024/02/15 03:56:01;;;;;;;3.20;2.70;;;;;;;2.35;100.00;98292.66;1224933;75;2913731;-65
2024/02/15 03:58:37;;;;;;;5.80;3.55;;;;;;;2.33;100.00;98287.69;1223791;75;2918705;-64
2024/02/15 04:01:11;;;;;;;4.75;2.95;;;;;;;2.33;100.00;98289.59;1224304;75;2919412;-65
2024/02/15 04:03:44;;;;;;;4.70;3.00;;;;;;;2.47;100.00;98305.63;1225186;75;2922799;-65
2024/02/15 04:06:17;;;;;;;3.20;2.40;;;;;;;2.56;100.00;98300.50;1224457;75;2934636;-65
2024/02/15 04:08:49;;;;;;;3.15;2.45;;;;;;;2.47;100.00;98302.94;1224204;75;2920561;-64
2024/02/15 04:11:22;;;;;;;3.70;2.55;;;;;;;2.47;100.00;98304.88;1223892;75;2912871;-65
2024/02/15 04:13:58;;;;;;;3.95;2.90;;;;;;;2.49;100.00;98305.22;1224196;75;2918258;-66
2024/02/15 04:16:31;;;;;;;4.35;3.00;;;;;;;2.46;100.00;98304.09;1223946;75;2919285;-65
2024/02/15 04:19:04;;;;;;;3.50;2.55;;;;;;;2.40;100.00;98304.97;1223408;75;2921796;-66
2024/02/15 04:21:38;;;;;;;6.30;3.90;;;;;;;2.26;100.00;98303.19;1223780;75;2919212;-65
2024/02/15 04:24:11;;;;;;;5.75;3.40;;;;;;;2.19;100.00;98301.34;1223993;75;2921272;-64
2024/02/15 04:26:45;;;;;;;6.10;3.95;;;;;;;2.07;100.00;98313.44;1224213;75;2919767;-63
2024/02/15 04:29:21;;;;;;;6.10;4.45;;;;;;;2.21;100.00;98311.72;1223520;75;2928226;-67
2024/02/15 04:31:54;;;;;;;5.00;3.45;;;;;;;2.39;100.00;98296.09;1222752;75;2920068;-65
2024/02/15 04:34:27;;;;;;;3.70;2.70;;;;;;;2.46;100.00;98303.34;1223803;75;2922541;-63
2024/02/15 04:37:00;;;;;;;4.10;2.60;;;;;;;2.51;100.00;98309.06;1223889;75;2931649;-65
2024/02/15 04:39:33;;;;;;;2.95;2.45;;;;;;;2.56;100.00;98314.00;1223714;75;2932236;-65
2024/02/15 04:42:11;;;;;;;2.85;2.15;;;;;;;2.55;100.00;98307.09;1224161;75;2942313;-64
2024/02/15 04:44:46;;;;;;;3.60;2.60;;;;;;;2.57;100.00;98306.66;1224331;75;2918566;-65
2024/02/15 04:47:19;;;;;;;2.95;2.20;;;;;;;2.59;100.00;98308.97;1224607;75;2923890;-65
2024/02/15 04:49:54;;;;;;;3.95;2.20;;;;;;;2.44;100.00;98306.44;1224618;75;2924467;-66
2024/02/15 04:52:27;;;;;;;7.15;3.80;;;;;;;2.10;100.00;98307.22;1224278;75;2928160;-64
2024/02/15 04:54:59;;;;;;;5.90;4.10;;;;;;;2.31;100.00;98317.03;1224158;75;2929969;-65
2024/02/15 04:57:34;;;;;;;3.60;2.80;;;;;;;2.44;100.00;98303.75;1224461;75;2924941;-64
2024/02/15 05:00:15;;;;;;;3.00;2.55;;;;;;;2.55;100.00;98303.63;1224064;75;2945858;-65
2024/02/15 05:02:47;;;;;;;4.00;2.90;;;;;;;2.62;100.00;98311.66;1224722;75;2925391;-66
2024/02/15 05:05:21;;;;;;;3.70;2.70;;;;;;;2.64;100.00;98313.94;1224283;75;2922145;-64
2024/02/15 05:07:54;;;;;;;5.45;3.40;;;;;;;2.34;100.00;98318.16;1223957;75;2923864;-64
2024/02/15 05:10:27;;;;;;;7.75;4.90;;;;;;;2.24;100.00;98317.09;1224442;75;2923097;-65
2024/02/15 05:13:01;;;;;;;9.35;5.35;;;;;;;2.30;100.00;98322.81;1223696;75;2925948;-64
2024/02/15 05:15:36;;;;;;;8.05;4.35;;;;;;;2.51;100.00;98321.81;1223351;75;2970884;-65
2024/02/15 05:18:09;;;;;;;6.60;4.65;;;;;;;2.61;100.00;98318.22;1223958;75;2922860;-63
2024/02/15 05:20:42;;;;;;;5.45;4.25;;;;;;;2.64;100.00;98319.34;1223759;75;2924795;-66
2024/02/15 05:23:18;;;;;;;5.10;3.80;;;;;;;2.82;100.00;98321.81;1224910;75;2922907;-62
2024/02/15 05:25:50;;;;;;;4.85;3.65;;;;;;;2.78;100.00;98311.78;1226231;75;2921103;-63
2024/02/15 05:28:26;;;;;;;6.65;4.25;;;;;;;2.90;100.00;98309.72;1224289;75;2922856;-64
2024/02/15 05:31:20;;;;;;;6.05;3.40;;;;;;;2.93;100.00;98304.25;1224242;75;2922037;-64
2024/02/15 05:33:53;;;;;;;5.15;3.65;;;;;;;2.97;100.00;98317.72;1220789;75;3257369;-64
2024/02/15 05:36:26;;;;;;;7.10;3.25;;;;;;;2.99;100.00;98313.44;1225129;75;2922078;-64
2024/02/15 05:38:59;;;;;;;10.40;5.55;;;;;;;2.79;100.00;98304.47;1224511;75;2931061;-64
2024/02/15 05:41:32;;;;;;;6.50;4.30;;;;;;;2.73;100.00;98308.78;1224715;75;2927090;-64
2024/02/15 05:44:06;;;;;;;6.45;3.80;;;;;;;2.85;100.00;98313.63;1224205;75;2924296;-65
2024/02/15 05:46:42;;;;;;;5.65;3.70;;;;;;;2.95;100.00;98315.44;1223947;75;2923226;-64
2024/02/15 05:49:17;;;;;;;5.90;4.10;;;;;;;2.91;100.00;98314.72;1223493;75;2920859;-64
2024/02/15 05:51:50;;;;;;;4.30;3.10;;;;;;;2.96;100.00;98306.16;1222937;75;2927582;-65
2024/02/15 05:54:22;;;;;;;4.35;3.25;;;;;;;3.10;100.00;98309.81;1222757;75;2923317;-66
2024/02/15 05:56:57;;;;;;;4.45;3.15;;;;;;;2.98;100.00;98298.41;1223050;75;2931104;-65
2024/02/15 05:59:30;;;;;;;4.85;3.00;;;;;;;2.94;100.00;98316.63;1223638;75;2922255;-68
2024/02/15 06:02:05;;;;;;;4.25;3.00;;;;;;;3.08;100.00;98298.63;1223250;75;2919878;-65
2024/02/15 06:04:39;;;;;;;3.70;2.85;;;;;;;3.11;100.00;98314.81;1224225;75;2919695;-65
2024/02/15 06:07:11;;;;;;;7.80;4.05;;;;;;;2.88;100.00;98314.75;1223905;67;2935084;-65
2024/02/15 06:09:44;;;;;;;4.90;3.75;;;;;;;3.20;100.00;98306.97;1223650;75;2925670;-66
2024/02/15 06:12:17;;;;;;;3.95;2.90;;;;;;;3.33;100.00;98309.09;1223881;75;2929521;-65
2024/02/15 06:14:50;;;;;;;4.35;2.75;;;;;;;3.32;100.00;98313.75;1223823;75;2925049;-65
2024/02/15 06:17:25;;;;;;;4.20;2.90;;;;;;;3.24;100.00;98323.13;1223463;83;2924552;-65
2024/02/15 06:19:58;;;;;;;3.15;2.35;;;;;;;3.32;100.00;98315.66;1222940;75;2938970;-65
2024/02/15 06:22:31;;;;;;;3.75;2.55;;;;;;;3.38;100.00;98332.97;1223138;75;2918678;-64
2024/02/15 06:25:05;;;;;;;2.50;2.00;;;;;;;3.48;100.00;98332.03;1222820;75;2921328;-64
2024/02/15 06:27:40;;;;;;;5.80;3.30;;;;;;;3.16;100.00;98335.25;1223644;75;2931272;-65
2024/02/15 06:41:19;;;;;;;5.65;4.05;;;;;;;3.48;100.00;98339.41;1223108;83;2928606;-62
2024/02/15 06:43:51;;;;;;;6.75;4.60;;;;;;;3.65;100.00;98337.59;1223751;75;2919564;-66
2024/02/15 06:46:24;;;;;;;11.10;6.15;;;;;;;3.35;100.00;98333.81;1223322;75;2921999;-65
2024/02/15 06:49:00;;;;;;;10.05;6.50;;;;;;;3.53;100.00;98339.69;1222736;75;2926539;-65
2024/02/15 06:51:33;;;;;;;8.75;5.90;;;;;;;3.68;100.00;98336.75;1223488;75;2922361;-64
2024/02/15 06:54:06;;;;;;;7.10;4.80;;;;;;;3.96;100.00;98347.09;1222177;75;2932517;-67
2024/02/15 06:56:41;;;;;;;5.10;3.80;;;;;;;4.12;100.00;98354.56;1222758;75;2924683;-64
2024/02/15 06:59:18;;;;;;;5.75;3.40;;;;;;;4.18;100.00;98350.19;1223032;75;2919787;-64
2024/02/15 07:01:52;;;;;;;4.05;3.10;;;;;;;4.20;100.00;98358.66;1221397;67;3060986;-64
2024/02/15 07:04:28;;;;;;;4.50;3.40;;;;;;;4.17;100.00;98359.50;1223294;75;2920064;-64
2024/02/15 07:07:02;;;;;;;5.90;3.30;;;;;;;4.27;100.00;98355.06;1222972;75;2926286;-65
2024/02/15 07:09:34;;;;;;;4.95;3.55;;;;;;;4.31;100.00;98349.59;1223281;75;2925425;-66
2024/02/15 07:12:09;;;;;;;5.15;3.15;;;;;;;4.54;100.00;98356.88;1223783;75;2944001;-64
2024/02/15 07:14:41;;;;;;;4.15;2.65;;;;;;;4.66;99.98;98354.28;1223466;75;2921249;-64
2024/02/15 07:17:15;;;;;;;5.05;3.35;;;;;;;4.67;98.54;98357.78;1222625;75;2952415;-65
2024/02/15 07:19:51;;;;;;;3.75;2.90;;;;;;;4.72;97.24;98357.31;1219705;75;3117949;-66
2024/02/15 07:22:24;;;;;;;5.30;3.55;;;;;;;4.86;96.23;98351.59;1215538;75;2921135;-65
2024/02/15 07:24:57;;;;;;;3.70;2.80;;;;;;;5.06;93.88;98356.97;1179794;75;6073023;-67
2024/02/15 07:27:30;;;;;;;4.75;3.10;;;;;;;5.24;92.65;98355.78;1223797;75;2920097;-65
2024/02/15 07:30:03;;;;;;;5.90;3.90;;;;;;;5.12;92.71;98358.00;1223926;75;2921989;-66
2024/02/15 07:32:36;;;;;;;7.85;4.95;;;;;;;4.96;95.63;98359.91;1223289;75;2930447;-64
2024/02/15 07:35:13;;;;;;;10.40;6.35;;;;;;;4.89;98.38;98361.59;1223531;75;2923252;-66
2024/02/15 07:37:58;;;;;;;8.00;4.90;;;;;;;5.35;93.93;98359.03;1221063;75;2996132;-64
2024/02/15 07:40:31;;;;;;;6.70;4.15;;;;;;;5.51;91.84;98361.78;1224169;75;2920856;-66
2024/02/15 07:43:06;;;;;;;5.80;3.80;;;;;;;5.59;91.61;98350.75;1224291;75;2921297;-64
2024/02/15 07:45:38;;;;;;;6.75;3.85;;;;;;;5.68;91.28;98348.19;1222341;75;2913557;-64
2024/02/15 07:48:12;;;;;;;5.95;3.95;;;;;;;5.54;89.28;98344.63;1224214;75;2921946;-64
2024/02/15 07:50:48;;;;;;;6.30;4.10;;;;;;;5.84;88.39;98329.13;1221660;75;2945802;-63
2024/02/15 07:53:21;;;;;;;6.40;3.55;;;;;;;6.20;86.93;98330.97;1223604;75;2935329;-64
2024/02/15 07:55:54;;;;;;;6.55;3.50;;;;;;;6.19;85.07;98334.88;1223550;75;2922184;-65
2024/02/15 07:58:28;;;;;;;3.90;2.95;;;;;;;6.33;83.83;98326.34;1223158;75;2924190;-65
2024/02/15 08:01:01;;;;;;;5.80;2.65;;;;;;;6.36;82.50;98330.16;1222391;75;2928107;-62
2024/02/15 08:03:36;;;;;;;3.70;2.70;;;;;;;6.66;81.10;98325.44;1223045;75;2922025;-63
2024/02/15 08:06:12;;;;;;;6.70;3.40;;;;;;;6.80;81.04;98325.03;1223022;75;2927342;-66
2024/02/15 08:08:47;;;;;;;4.20;2.80;;;;;;;7.40;77.50;98316.22;1223355;75;2956831;-66
2024/02/15 08:11:20;;;;;;;4.50;3.55;;;;;;;8.23;74.96;98312.28;1223238;75;2927177;-64
2024/02/15 08:13:59;;;;;;;7.70;4.75;;;;;;;8.40;74.80;98321.06;1223222;75;2921762;-64
2024/02/15 08:16:33;;;;;;;14.75;6.85;;;;;;;7.75;75.20;98325.19;1223118;75;2924464;-66
2024/02/15 08:19:07;;;;;;;7.90;5.15;;;;;;;8.62;72.97;98326.50;1223205;75;2925042;-64
2024/02/15 08:21:50;;;;;;;9.75;5.65;;;;;;;8.31;73.14;98331.88;1223793;75;2926555;-67
2024/02/15 08:24:23;;;;;;;8.25;5.20;;;;;;;8.62;72.80;98323.03;1223883;75;2925868;-64
2024/02/15 08:26:57;;;;;;;13.25;6.05;;;;;;;7.79;76.66;98325.06;1222300;75;2923128;-67
2024/02/15 08:29:30;;;;;;;11.95;6.40;;;;;;;7.61;77.04;98325.66;1224057;75;2923427;-67
2024/02/15 08:32:04;;;;;;;11.75;6.20;;;;;;;7.96;75.47;98329.19;1224448;75;2924551;-65
2024/02/15 08:34:37;;;;;;;9.50;5.50;;;;;;;7.92;75.33;98331.25;1222088;75;2920609;-64
2024/02/15 08:37:13;;;;;;;8.70;5.55;;;;;;;8.88;72.31;98327.09;1223686;75;2924714;-65
2024/02/15 08:39:46;;;;;;;8.25;4.75;;;;;;;9.43;70.92;98329.31;1223099;75;2920503;-66
2024/02/15 08:42:22;;;;;;;10.70;5.40;;;;;;;10.63;67.52;98326.63;1223510;75;2922972;-65
2024/02/15 08:44:55;;;;;;;9.40;5.90;;;;;;;10.66;65.75;98333.94;1223737;75;2924770;-66
2024/02/15 08:47:32;;;;;;;11.75;5.45;;;;;;;11.20;63.97;98321.28;1223654;75;2926962;-65
2024/02/15 08:50:05;;;;;;;15.75;7.20;;;;;;;10.25;67.58;98322.41;1224063;75;2923275;-65
2024/02/15 08:52:41;;;;;;;12.75;7.45;;;;;;;10.72;66.15;98328.59;1221759;75;2922252;-67
2024/02/15 08:55:15;;;;;;;14.25;7.35;;;;;;;11.11;66.71;98318.56;1225104;75;2919190;-65
2024/02/15 08:57:48;;;;;;;14.65;7.15;;;;;;;11.01;64.56;98315.09;1223022;75;2922956;-64
2024/02/15 09:00:21;;;;;;;13.45;6.35;;;;;;;11.21;64.99;98311.09;1223866;75;2924662;-65
2024/02/15 09:02:54;;;;;;;10.65;6.45;;;;;;;11.18;65.58;98309.25;1223788;75;2926546;-62
2024/02/15 09:05:27;;;;;;;10.40;6.20;;;;;;;11.84;63.87;98302.97;1222792;75;2930192;-65
2024/02/15 09:08:04;;;;;;;10.25;7.00;;;;;;;11.45;64.07;98297.41;1223716;75;2923395;-65
2024/02/15 09:10:39;;;;;;;11.45;6.65;;;;;;;10.90;66.12;98309.38;1223453;75;2929185;-65
2024/02/15 09:13:12;;;;;;;10.95;6.30;;;;;;;11.16;65.64;98306.22;1223749;75;2922433;-64
2024/02/15 09:15:47;;;;;;;12.10;6.80;;;;;;;10.45;67.39;98306.28;1223836;75;2930864;-66
2024/02/15 09:18:22;;;;;;;13.05;5.70;;;;;;;11.65;64.15;98313.28;1223996;75;2923831;-65
2024/02/15 09:20:56;;;;;;;11.05;7.15;;;;;;;10.76;66.38;98302.56;1224496;75;2916871;-65
2024/02/15 09:23:31;;;;;;;12.40;7.50;;;;;;;10.59;68.07;98307.63;1223329;75;2943204;-64
2024/02/15 09:26:04;;;;;;;12.15;6.90;;;;;;;10.66;67.87;98298.34;1224130;75;2926717;-65
2024/02/15 09:28:37;;;;;;;9.00;6.40;;;;;;;12.02;65.34;98296.59;1223875;75;2927151;-64
2024/02/15 09:31:11;;;;;;;20.40;6.10;;;;;;;11.34;66.17;98308.88;1223603;75;2923836;-65
2024/02/15 09:33:44;;;;;;;13.60;6.20;;;;;;;11.15;66.13;98304.72;1224894;75;2916587;-67
2024/02/15 09:36:17;;;;;;;9.05;5.60;;;;;;;12.15;64.80;98308.09;1223990;75;2922622;-63
2024/02/15 09:38:53;;;;;;;8.10;4.15;;;;;;;12.67;63.76;98305.75;1223754;75;2930454;-64
2024/02/15 09:41:25;;;;;;;8.15;5.20;;;;;;;12.46;63.27;98304.13;1222932;75;2927207;-67
2024/02/15 09:43:58;;;;;;;12.65;5.25;;;;;;;11.71;64.53;98306.69;1224009;75;2925803;-63
2024/02/15 09:46:31;;;;;;;9.55;5.90;;;;;;;11.79;64.20;98303.59;1222401;75;2926413;-68
2024/02/15 09:49:04;;;;;;;13.35;5.10;;;;;;;11.28;65.38;98291.53;1223649;75;2915808;-64
2024/02/15 09:51:40;;;;;;;8.15;4.15;;;;;;;12.13;63.77;98294.06;1223508;75;2929194;-66
2024/02/15 09:54:22;;;;;;;8.20;4.80;;;;;;;12.61;63.23;98285.69;1224407;75;2918865;-66
2024/02/15 09:56:56;;;;;;;9.90;4.90;;;;;;;11.76;64.27;98290.81;1224637;75;2921660;-65
2024/02/15 09:59:30;;;;;;;5.95;4.20;;;;;;;11.92;64.14;98293.91;1224135;75;2924282;-68
2024/02/15 10:02:03;;;;;;;8.20;4.20;;;;;;;12.01;63.79;98293.09;1223456;75;2919841;-65
2024/02/15 10:04:37;;;;;;;5.95;3.80;;;;;;;11.88;63.46;98282.38;1222765;75;2923115;-65
2024/02/15 10:07:10;;;;;;;11.20;4.20;;;;;;;11.62;64.12;98281.31;1223223;75;2921451;-64
2024/02/15 10:09:46;;;;;;;6.35;4.00;;;;;;;11.89;63.83;98283.88;1224192;75;2925077;-64
2024/02/15 10:12:20;;;;;;;6.25;3.25;;;;;;;12.34;63.39;98276.50;1221507;75;2934254;-65
2024/02/15 10:14:55;;;;;;;4.45;3.00;;;;;;;12.64;62.40;98256.50;1224081;75;2935842;-65
2024/02/15 10:17:28;;;;;;;5.10;2.85;;;;;;;12.60;62.65;98264.19;1223502;75;2928233;-64
2024/02/15 10:20:09;;;;;;;4.05;2.40;;;;;;;12.67;62.69;98259.06;1222925;75;2921383;-64
2024/02/15 10:22:42;;;;;;;5.70;2.60;;;;;;;12.79;62.93;98259.97;1223502;75;2917451;-67
2024/02/15 10:25:18;;;;;;;5.70;3.25;;;;;;;12.56;61.66;98256.13;1223875;75;2923145;-65
2024/02/15 10:27:51;;;;;;;5.70;2.80;;;;;;;12.63;61.90;98255.75;1223401;75;2922604;-66
2024/02/15 10:30:25;;;;;;;8.75;3.95;;;;;;;12.17;62.40;98258.97;1223913;75;2921267;-64
2024/02/15 10:32:59;;;;;;;6.95;4.20;;;;;;;11.91;64.18;98269.72;1223143;75;2925144;-65
2024/02/15 10:35:34;;;;;;;6.15;3.50;;;;;;;12.40;64.46;98257.34;1223876;75;2921900;-66
2024/02/15 10:38:12;;;;;;;6.60;4.15;;;;;;;11.96;63.42;98255.34;1223061;75;2930946;-63
2024/02/15 10:40:49;;;;;;;8.75;4.80;;;;;;;11.70;64.90;98255.81;1223870;75;2926892;-65
2024/02/15 10:43:24;;;;;;;9.35;5.45;;;;;;;11.82;64.61;98259.53;1223507;75;2922043;-64
2024/02/15 10:45:58;;;;;;;8.20;4.40;;;;;;;12.05;64.10;98249.00;1222643;75;2930824;-62
2024/02/15 10:48:31;;;;;;;10.95;6.25;;;;;;;11.62;66.79;98251.91;1223494;75;2915794;-64
2024/02/15 10:51:06;;;;;;;9.15;5.25;;;;;;;12.05;65.74;98257.22;1223745;75;2915401;-65
2024/02/15 10:53:43;;;;;;;7.50;4.95;;;;;;;12.25;64.85;98248.38;1224086;75;2921321;-65
2024/02/15 10:56:25;;;;;;;10.75;5.05;;;;;;;12.20;65.08;98238.81;1224073;75;2918495;-68
2024/02/15 10:59:06;;;;;;;10.05;5.05;;;;;;;11.84;63.79;98245.34;1223500;75;2958081;-65
2024/02/15 11:01:41;;;;;;;10.00;4.65;;;;;;;12.22;63.44;98233.59;1222461;75;2921003;-65
2024/02/15 11:04:22;;;;;;;8.50;4.80;;;;;;;12.27;63.36;98237.69;1222371;75;2945047;-63
2024/02/15 11:06:58;;;;;;;7.80;4.20;;;;;;;12.49;63.76;98229.06;1224183;75;2922710;-64
2024/02/15 11:09:32;;;;;;;10.50;5.65;;;;;;;12.13;63.73;98222.72;1224342;75;2919247;-67
2024/02/15 11:12:11;;;;;;;8.65;4.70;;;;;;;12.38;62.77;98223.38;1224354;75;2924152;-65
2024/02/15 11:14:47;;;;;;;;;;;;;;;13.05;61.43;98229.91;1225624;75;2922511;-65
2024/02/15 11:17:55;;;;;;;9.00;3.50;;;;;;;13.37;59.83;98213.59;1223567;75;2924818;-66
2024/02/15 11:20:55;;;;;;;9.00;4.30;;;;;;;13.49;59.78;98204.25;1224072;75;2923966;-63
2024/02/15 11:23:30;;;;;;;5.55;3.20;;;;;;;13.46;59.19;98204.47;1223576;75;2932399;-65
2024/02/15 11:26:03;;;;;;;6.10;3.40;;;;;;;13.37;59.30;98199.84;1224147;75;2918699;-64
2024/02/15 11:28:50;;;;;;;5.30;3.05;;;;;;;13.03;60.34;98207.63;1223243;75;2924768;-66
2024/02/15 11:31:58;;;;;;;9.50;3.75;;;;;;;13.02;61.33;98208.13;1221736;75;2934492;-66
2024/02/15 11:34:50;;;;;;;7.30;3.30;;;;;;;12.89;60.64;98200.97;1223888;75;2917042;-63
2024/02/15 11:38:03;;;;;;;5.15;3.20;;;;;;;12.81;61.07;98199.81;1223676;75;2919607;-65
2024/02/15 11:41:04;;;;;;;5.65;3.15;;;;;;;13.45;60.84;98202.97;1223411;75;2923343;-67
2024/02/15 11:43:59;;;;;;;6.10;3.40;;;;;;;13.14;61.56;98191.28;1223792;75;2918125;-65
2024/02/15 11:46:34;;;;;;;7.55;3.10;;;;;;;13.20;62.35;98192.13;1223898;75;2919312;-65
2024/02/15 11:49:07;;;;;;;4.80;2.60;;;;;;;13.38;60.55;98191.13;1224032;75;2931225;-65
2024/02/15 11:51:42;;;;;;;6.90;3.55;;;;;;;13.11;61.96;98197.75;1223808;75;2930395;-65
2024/02/15 11:54:15;;;;;;;6.20;3.65;;;;;;;12.76;63.01;98187.50;1223587;75;2923191;-69
2024/02/15 11:57:13;;;;;;;6.15;3.60;;;;;;;12.58;62.79;98196.00;1223163;83;2926733;-65
2024/02/15 12:19:28;;;;;;;6.10;3.00;;;;;;;12.48;63.84;98169.84;1224073;75;2921913;-64
2024/02/15 12:22:02;;;;;;;4.35;2.70;;;;;;;12.62;63.63;98171.81;1223832;75;2924227;-67